sensor_id;sensor_type;location;lat;lon;timestamp;pressure;altitude;pressure_sealevel;temperature;humidity
61573;BME280;47465;43.094;12.434;2022-08-07T00:01:02;98417.72;;;26.10;46.18
61573;BME280;47465;43.094;12.434;2022-08-07T00:03:28;98425.75;;;26.12;46.29
61573;BME280;47465;43.094;12.434;2022-08-07T00:05:54;98410.13;;;26.04;46.48
61573;BME280;47465;43.094;12.434;2022-08-07T00:08:20;98425.50;;;26.05;46.64
61573;BME280;47465;43.094;12.434;2022-08-07T00:10:47;98420.50;;;25.91;47.22
61573;BME280;47465;43.094;12.434;2022-08-07T00:13:13;98416.34;;;25.77;47.75
61573;BME280;47465;43.094;12.434;2022-08-07T00:15:40;98413.19;;;25.72;47.96
61573;BME280;47465;43.094;12.434;2022-08-07T00:18:06;98408.75;;;25.61;48.38
61573;BME280;47465;43.094;12.434;2022-08-07T00:20:34;98399.91;;;25.49;48.95
61573;BME280;47465;43.094;12.434;2022-08-07T00:23:00;98410.09;;;25.57;49.44
61573;BME280;47465;43.094;12.434;2022-08-07T00:25:26;98402.19;;;25.54;49.85
61573;BME280;47465;43.094;12.434;2022-08-07T00:27:52;98396.59;;;25.55;49.89
61573;BME280;47465;43.094;12.434;2022-08-07T00:30:18;98384.41;;;25.59;50.02
61573;BME280;47465;43.094;12.434;2022-08-07T00:32:47;98396.28;;;25.68;50.05
61573;BME280;47465;43.094;12.434;2022-08-07T00:35:13;98374.50;;;25.58;50.31
61573;BME280;47465;43.094;12.434;2022-08-07T00:37:39;98391.72;;;25.59;50.46
61573;BME280;47465;43.094;12.434;2022-08-07T00:40:06;98373.25;;;25.53;50.66
61573;BME280;47465;43.094;12.434;2022-08-07T00:42:32;98377.94;;;25.60;50.76
61573;BME280;47465;43.094;12.434;2022-08-07T00:44:58;98381.69;;;25.59;50.94
61573;BME280;47465;43.094;12.434;2022-08-07T00:47:24;98380.97;;;25.57;51.33
61573;BME280;47465;43.094;12.434;2022-08-07T00:49:52;98385.56;;;25.57;51.51
61573;BME280;47465;43.094;12.434;2022-08-07T00:52:18;98382.56;;;25.60;51.92
61573;BME280;47465;43.094;12.434;2022-08-07T00:54:44;98362.63;;;25.59;51.52
61573;BME280;47465;43.094;12.434;2022-08-07T00:57:11;98372.91;;;25.75;51.75
61573;BME280;47465;43.094;12.434;2022-08-07T00:59:39;98380.34;;;25.83;51.85
61573;BME280;47465;43.094;12.434;2022-08-07T01:02:06;98364.44;;;25.78;52.16
61573;BME280;47465;43.094;12.434;2022-08-07T01:04:32;98356.28;;;25.88;51.93
61573;BME280;47465;43.094;12.434;2022-08-07T01:07:00;98369.00;;;25.88;52.34
61573;BME280;47465;43.094;12.434;2022-08-07T01:09:26;98360.97;;;25.86;52.43
61573;BME280;47465;43.094;12.434;2022-08-07T01:11:53;98370.28;;;25.93;52.30
61573;BME280;47465;43.094;12.434;2022-08-07T01:14:20;98358.13;;;25.88;52.71
61573;BME280;47465;43.094;12.434;2022-08-07T01:16:47;98365.72;;;25.94;52.58
61573;BME280;47465;43.094;12.434;2022-08-07T01:19:13;98373.44;;;25.98;53.04
61573;BME280;47465;43.094;12.434;2022-08-07T01:21:41;98364.13;;;25.91;53.06
61573;BME280;47465;43.094;12.434;2022-08-07T01:24:08;98381.63;;;25.98;53.45
61573;BME280;47465;43.094;12.434;2022-08-07T01:26:34;98368.28;;;25.95;53.38
61573;BME280;47465;43.094;12.434;2022-08-07T01:29:00;98383.19;;;26.01;53.70
61573;BME280;47465;43.094;12.434;2022-08-07T01:31:27;98365.31;;;25.89;53.76
61573;BME280;47465;43.094;12.434;2022-08-07T01:33:56;98376.47;;;25.95;53.81
61573;BME280;47465;43.094;12.434;2022-08-07T01:36:22;98350.09;;;25.86;53.65
61573;BME280;47465;43.094;12.434;2022-08-07T01:38:50;98359.25;;;26.05;53.50
61573;BME280;47465;43.094;12.434;2022-08-07T01:41:17;98370.13;;;26.05;53.46
61573;BME280;47465;43.094;12.434;2022-08-07T01:43:45;98354.38;;;25.98;53.79
61573;BME280;47465;43.094;12.434;2022-08-07T01:46:11;98368.59;;;25.92;54.31
61573;BME280;47465;43.094;12.434;2022-08-07T01:48:39;98356.38;;;25.87;54.34
61573;BME280;47465;43.094;12.434;2022-08-07T01:51:08;98371.28;;;26.02;54.41
61573;BME280;47465;43.094;12.434;2022-08-07T01:53:36;98365.41;;;25.97;54.50
61573;BME280;47465;43.094;12.434;2022-08-07T01:56:09;98384.44;;;26.07;54.60
61573;BME280;47465;43.094;12.434;2022-08-07T01:58:40;98362.69;;;25.97;54.39
61573;BME280;47465;43.094;12.434;2022-08-07T02:01:12;98362.13;;;25.93;54.69
61573;BME280;47465;43.094;12.434;2022-08-07T02:03:42;98355.41;;;25.88;54.76
61573;BME280;47465;43.094;12.434;2022-08-07T02:06:12;98358.13;;;25.88;55.03
61573;BME280;47465;43.094;12.434;2022-08-07T02:08:41;98370.59;;;25.90;55.31
61573;BME280;47465;43.094;12.434;2022-08-07T02:11:11;98385.06;;;25.91;55.65
61573;BME280;47465;43.094;12.434;2022-08-07T02:13:37;98359.09;;;25.87;55.48
61573;BME280;47465;43.094;12.434;2022-08-07T02:16:05;98368.72;;;25.91;55.88
61573;BME280;47465;43.094;12.434;2022-08-07T02:18:33;98377.03;;;25.99;55.50
61573;BME280;47465;43.094;12.434;2022-08-07T02:21:03;98370.00;;;25.87;56.03
61573;BME280;47465;43.094;12.434;2022-08-07T02:23:32;98356.69;;;25.83;56.24
61573;BME280;47465;43.094;12.434;2022-08-07T02:26:00;98360.25;;;25.84;55.93
61573;BME280;47465;43.094;12.434;2022-08-07T02:28:28;98364.44;;;25.88;56.14
61573;BME280;47465;43.094;12.434;2022-08-07T02:30:56;98356.84;;;25.92;56.41
61573;BME280;47465;43.094;12.434;2022-08-07T02:33:24;98359.72;;;25.90;56.39
61573;BME280;47465;43.094;12.434;2022-08-07T02:35:51;98369.91;;;25.88;56.78
61573;BME280;47465;43.094;12.434;2022-08-07T02:38:20;98363.69;;;25.86;56.36
61573;BME280;47465;43.094;12.434;2022-08-07T02:40:48;98371.00;;;25.95;56.41
61573;BME280;47465;43.094;12.434;2022-08-07T02:43:15;98357.69;;;25.92;56.60
61573;BME280;47465;43.094;12.434;2022-08-07T02:45:43;98362.69;;;25.87;56.56
61573;BME280;47465;43.094;12.434;2022-08-07T02:48:11;98374.47;;;25.88;56.72
61573;BME280;47465;43.094;12.434;2022-08-07T02:50:42;98346.13;;;25.71;56.82
61573;BME280;47465;43.094;12.434;2022-08-07T02:53:11;98370.75;;;25.79;57.37
61573;BME280;47465;43.094;12.434;2022-08-07T02:55:42;98356.59;;;25.66;57.72
61573;BME280;47465;43.094;12.434;2022-08-07T02:58:14;98353.31;;;25.62;58.09
61573;BME280;47465;43.094;12.434;2022-08-07T03:00:44;98373.34;;;25.61;58.25
61573;BME280;47465;43.094;12.434;2022-08-07T03:03:11;98370.66;;;25.51;59.08
61573;BME280;47465;43.094;12.434;2022-08-07T03:05:40;98356.50;;;25.38;58.86
61573;BME280;47465;43.094;12.434;2022-08-07T03:08:06;98370.84;;;25.40;59.76
61573;BME280;47465;43.094;12.434;2022-08-07T03:10:33;98358.38;;;25.28;60.13
61573;BME280;47465;43.094;12.434;2022-08-07T03:13:00;98371.28;;;25.26;60.28
61573;BME280;47465;43.094;12.434;2022-08-07T03:15:28;98345.88;;;25.15;60.72
61573;BME280;47465;43.094;12.434;2022-08-07T03:17:57;98355.06;;;25.14;60.92
61573;BME280;47465;43.094;12.434;2022-08-07T03:20:22;98373.69;;;25.19;61.26
61573;BME280;47465;43.094;12.434;2022-08-07T03:22:49;98372.97;;;25.17;61.33
61573;BME280;47465;43.094;12.434;2022-08-07T03:25:17;98363.94;;;25.07;61.75
61573;BME280;47465;43.094;12.434;2022-08-07T03:27:46;98348.06;;;24.92;62.19
61573;BME280;47465;43.094;12.434;2022-08-07T03:30:14;98359.66;;;24.94;62.24
61573;BME280;47465;43.094;12.434;2022-08-07T03:32:42;98365.66;;;24.98;62.50
61573;BME280;47465;43.094;12.434;2022-08-07T03:35:12;98367.22;;;24.91;62.95
61573;BME280;47465;43.094;12.434;2022-08-07T03:37:42;98375.25;;;24.92;63.24
61573;BME280;47465;43.094;12.434;2022-08-07T03:40:10;98372.81;;;24.79;63.87
61573;BME280;47465;43.094;12.434;2022-08-07T03:42:36;98368.22;;;24.70;64.11
61573;BME280;47465;43.094;12.434;2022-08-07T03:45:03;98376.81;;;24.75;64.45
61573;BME280;47465;43.094;12.434;2022-08-07T03:47:30;98383.66;;;24.70;64.54
61573;BME280;47465;43.094;12.434;2022-08-07T03:49:56;98390.81;;;24.71;65.22
61573;BME280;47465;43.094;12.434;2022-08-07T03:52:27;98394.53;;;24.70;65.25
61573;BME280;47465;43.094;12.434;2022-08-07T03:54:56;98384.81;;;24.67;65.13
61573;BME280;47465;43.094;12.434;2022-08-07T03:57:23;98389.81;;;24.72;64.94
61573;BME280;47465;43.094;12.434;2022-08-07T03:59:50;98395.53;;;24.78;64.74
61573;BME280;47465;43.094;12.434;2022-08-07T04:02:16;98395.16;;;24.83;64.81
61573;BME280;47465;43.094;12.434;2022-08-07T04:04:43;98385.38;;;24.71;65.27
61573;BME280;47465;43.094;12.434;2022-08-07T04:07:09;98401.13;;;24.67;65.63
61573;BME280;47465;43.094;12.434;2022-08-07T04:09:37;98387.94;;;24.63;65.79
61573;BME280;47465;43.094;12.434;2022-08-07T04:12:05;98393.88;;;24.47;66.80
61573;BME280;47465;43.094;12.434;2022-08-07T04:14:31;98412.66;;;24.50;67.24
61573;BME280;47465;43.094;12.434;2022-08-07T04:16:58;98384.81;;;24.27;67.92
61573;BME280;47465;43.094;12.434;2022-08-07T04:19:25;98382.94;;;24.27;67.54
61573;BME280;47465;43.094;12.434;2022-08-07T04:21:51;98412.78;;;24.48;67.34
61573;BME280;47465;43.094;12.434;2022-08-07T04:24:18;98402.03;;;24.47;67.24
61573;BME280;47465;43.094;12.434;2022-08-07T04:26:46;98417.13;;;24.60;66.78
61573;BME280;47465;43.094;12.434;2022-08-07T04:29:12;98399.97;;;24.60;67.03
61573;BME280;47465;43.094;12.434;2022-08-07T04:31:39;98429.88;;;24.70;66.70
61573;BME280;47465;43.094;12.434;2022-08-07T04:34:06;98432.59;;;24.70;66.91
61573;BME280;47465;43.094;12.434;2022-08-07T04:36:33;98409.94;;;24.50;67.54
61573;BME280;47465;43.094;12.434;2022-08-07T04:38:59;98440.31;;;24.55;67.89
61573;BME280;47465;43.094;12.434;2022-08-07T04:41:25;98428.84;;;24.51;67.66
61573;BME280;47465;43.094;12.434;2022-08-07T04:43:54;98453.19;;;24.63;67.80
61573;BME280;47465;43.094;12.434;2022-08-07T04:46:26;98450.59;;;24.61;67.82
61573;BME280;47465;43.094;12.434;2022-08-07T04:49:00;98446.31;;;24.58;67.87
61573;BME280;47465;43.094;12.434;2022-08-07T04:51:33;98433.84;;;24.56;67.63
61573;BME280;47465;43.094;12.434;2022-08-07T04:54:09;98449.31;;;24.65;67.68
61573;BME280;47465;43.094;12.434;2022-08-07T04:56:43;98461.22;;;24.64;67.83
61573;BME280;47465;43.094;12.434;2022-08-07T04:59:15;98452.78;;;24.67;67.67
61573;BME280;47465;43.094;12.434;2022-08-07T05:01:47;98462.97;;;24.85;67.13
61573;BME280;47465;43.094;12.434;2022-08-07T05:04:17;98451.53;;;24.81;67.32
61573;BME280;47465;43.094;12.434;2022-08-07T05:06:54;98473.00;;;24.94;67.15
61573;BME280;47465;43.094;12.434;2022-08-07T05:09:26;98469.00;;;24.98;67.17
61573;BME280;47465;43.094;12.434;2022-08-07T05:11:54;98464.16;;;24.92;67.36
61573;BME280;47465;43.094;12.434;2022-08-07T05:14:25;98470.63;;;25.00;67.43
61573;BME280;47465;43.094;12.434;2022-08-07T05:16:56;98464.28;;;24.90;67.82
61573;BME280;47465;43.094;12.434;2022-08-07T05:19:25;98473.06;;;25.04;67.84
61573;BME280;47465;43.094;12.434;2022-08-07T05:21:55;98453.50;;;25.29;66.11
61573;BME280;47465;43.094;12.434;2022-08-07T05:24:24;98486.16;;;25.49;65.70
61573;BME280;47465;43.094;12.434;2022-08-07T05:26:54;98477.16;;;25.48;65.38
61573;BME280;47465;43.094;12.434;2022-08-07T05:29:22;98475.25;;;25.58;65.16
61573;BME280;47465;43.094;12.434;2022-08-07T05:31:50;98481.53;;;25.78;64.55
61573;BME280;47465;43.094;12.434;2022-08-07T05:34:17;98472.81;;;25.75;64.65
61573;BME280;47465;43.094;12.434;2022-08-07T05:36:47;98475.13;;;25.89;63.85
61573;BME280;47465;43.094;12.434;2022-08-07T05:39:15;98473.97;;;25.82;63.51
61573;BME280;47465;43.094;12.434;2022-08-07T05:41:42;98458.47;;;25.82;63.93
61573;BME280;47465;43.094;12.434;2022-08-07T05:44:09;98486.84;;;26.09;63.42
61573;BME280;47465;43.094;12.434;2022-08-07T05:46:39;98477.69;;;25.91;63.76
61573;BME280;47465;43.094;12.434;2022-08-07T05:49:07;98479.28;;;25.83;64.48
61573;BME280;47465;43.094;12.434;2022-08-07T05:51:33;98468.69;;;25.90;64.64
61573;BME280;47465;43.094;12.434;2022-08-07T05:54:00;98482.13;;;26.11;63.47
61573;BME280;47465;43.094;12.434;2022-08-07T05:56:27;98469.81;;;25.97;63.57
61573;BME280;47465;43.094;12.434;2022-08-07T05:58:54;98470.34;;;26.11;62.98
61573;BME280;47465;43.094;12.434;2022-08-07T06:01:21;98488.97;;;26.25;62.69
61573;BME280;47465;43.094;12.434;2022-08-07T06:03:51;98490.50;;;26.37;62.45
61573;BME280;47465;43.094;12.434;2022-08-07T06:06:18;98483.16;;;26.57;61.52
61573;BME280;47465;43.094;12.434;2022-08-07T06:08:45;98481.31;;;26.76;61.03
61573;BME280;47465;43.094;12.434;2022-08-07T06:11:12;98481.28;;;26.86;60.18
61573;BME280;47465;43.094;12.434;2022-08-07T06:13:39;98479.50;;;26.67;60.73
61573;BME280;47465;43.094;12.434;2022-08-07T06:16:06;98494.16;;;26.66;61.21
61573;BME280;47465;43.094;12.434;2022-08-07T06:18:33;98495.03;;;26.66;61.02
61573;BME280;47465;43.094;12.434;2022-08-07T06:21:02;98504.63;;;26.70;60.75
61573;BME280;47465;43.094;12.434;2022-08-07T06:23:29;98486.63;;;26.77;59.85
61573;BME280;47465;43.094;12.434;2022-08-07T06:25:55;98475.88;;;26.76;59.50
61573;BME280;47465;43.094;12.434;2022-08-07T06:28:21;98476.53;;;26.88;59.38
61573;BME280;47465;43.094;12.434;2022-08-07T06:30:47;98500.59;;;26.74;60.38
61573;BME280;47465;43.094;12.434;2022-08-07T06:33:14;98471.47;;;26.65;59.98
61573;BME280;47465;43.094;12.434;2022-08-07T06:35:40;98484.00;;;26.86;59.39
61573;BME280;47465;43.094;12.434;2022-08-07T06:38:07;98485.91;;;26.75;59.33
61573;BME280;47465;43.094;12.434;2022-08-07T06:40:35;98482.38;;;26.93;58.30
61573;BME280;47465;43.094;12.434;2022-08-07T06:43:05;98472.28;;;27.03;58.86
61573;BME280;47465;43.094;12.434;2022-08-07T06:45:32;98476.00;;;27.30;56.88
61573;BME280;47465;43.094;12.434;2022-08-07T06:47:59;98479.38;;;27.41;57.19
61573;BME280;47465;43.094;12.434;2022-08-07T06:50:25;98476.31;;;27.62;56.10
61573;BME280;47465;43.094;12.434;2022-08-07T06:52:53;98469.44;;;27.58;56.13
61573;BME280;47465;43.094;12.434;2022-08-07T06:55:25;98471.03;;;27.61;56.11
61573;BME280;47465;43.094;12.434;2022-08-07T06:57:52;98476.47;;;27.61;55.66
61573;BME280;47465;43.094;12.434;2022-08-07T07:00:19;98484.19;;;27.83;54.27
61573;BME280;47465;43.094;12.434;2022-08-07T07:02:46;98468.63;;;27.84;54.32
61573;BME280;47465;43.094;12.434;2022-08-07T07:05:12;98456.25;;;27.72;54.88
61573;BME280;47465;43.094;12.434;2022-08-07T07:07:39;98469.16;;;28.05;54.21
61573;BME280;47465;43.094;12.434;2022-08-07T07:10:05;98465.44;;;28.33;52.83
61573;BME280;47465;43.094;12.434;2022-08-07T07:12:38;98461.56;;;28.43;51.89
61573;BME280;47465;43.094;12.434;2022-08-07T07:15:08;98462.44;;;28.78;51.40
61573;BME280;47465;43.094;12.434;2022-08-07T07:17:47;98454.88;;;28.72;48.81
61573;BME280;47465;43.094;12.434;2022-08-07T07:20:17;98449.47;;;28.97;47.53
61573;BME280;47465;43.094;12.434;2022-08-07T07:22:44;98450.50;;;28.96;48.03
61573;BME280;47465;43.094;12.434;2022-08-07T07:25:13;98433.91;;;28.89;48.04
61573;BME280;47465;43.094;12.434;2022-08-07T07:27:47;98447.81;;;29.04;48.51
61573;BME280;47465;43.094;12.434;2022-08-07T07:30:14;98430.25;;;29.31;47.51
61573;BME280;47465;43.094;12.434;2022-08-07T07:32:41;98441.59;;;29.61;46.49
61573;BME280;47465;43.094;12.434;2022-08-07T07:35:10;98417.13;;;29.76;45.60
61573;BME280;47465;43.094;12.434;2022-08-07T07:37:38;98442.41;;;29.53;44.43
61573;BME280;47465;43.094;12.434;2022-08-07T07:40:11;98437.47;;;29.81;44.38
61573;BME280;47465;43.094;12.434;2022-08-07T07:42:41;98417.59;;;29.96;43.57
61573;BME280;47465;43.094;12.434;2022-08-07T07:45:07;98455.44;;;30.17;43.90
61573;BME280;47465;43.094;12.434;2022-08-07T07:47:36;98436.41;;;30.15;43.79
61573;BME280;47465;43.094;12.434;2022-08-07T07:50:06;98430.56;;;30.26;43.30
61573;BME280;47465;43.094;12.434;2022-08-07T07:52:35;98421.50;;;30.18;42.03
61573;BME280;47465;43.094;12.434;2022-08-07T07:55:03;98420.97;;;30.30;42.56
61573;BME280;47465;43.094;12.434;2022-08-07T07:57:30;98438.09;;;30.41;42.53
61573;BME280;47465;43.094;12.434;2022-08-07T07:59:59;98424.91;;;30.20;42.74
61573;BME280;47465;43.094;12.434;2022-08-07T08:02:28;98436.91;;;30.19;42.73
61573;BME280;47465;43.094;12.434;2022-08-07T08:04:55;98430.75;;;30.33;42.84
61573;BME280;47465;43.094;12.434;2022-08-07T08:07:22;98426.88;;;30.59;41.28
61573;BME280;47465;43.094;12.434;2022-08-07T08:09:49;98424.72;;;30.77;42.00
61573;BME280;47465;43.094;12.434;2022-08-07T08:12:17;98431.00;;;30.63;41.57
61573;BME280;47465;43.094;12.434;2022-08-07T08:14:44;98418.75;;;30.34;42.26
61573;BME280;47465;43.094;12.434;2022-08-07T08:17:12;98424.28;;;30.65;42.40
61573;BME280;47465;43.094;12.434;2022-08-07T08:19:39;98423.84;;;30.54;42.10
61573;BME280;47465;43.094;12.434;2022-08-07T08:22:09;98451.44;;;31.00;41.40
61573;BME280;47465;43.094;12.434;2022-08-07T08:25:10;98450.75;;;30.98;41.21
61573;BME280;47465;43.094;12.434;2022-08-07T08:28:17;98450.72;;;31.06;41.28
61573;BME280;47465;43.094;12.434;2022-08-07T08:30:46;98439.75;;;31.29;41.23
61573;BME280;47465;43.094;12.434;2022-08-07T08:33:15;98444.31;;;31.45;41.22
61573;BME280;47465;43.094;12.434;2022-08-07T08:35:46;98431.63;;;31.13;41.84
61573;BME280;47465;43.094;12.434;2022-08-07T08:38:14;98429.88;;;30.88;42.39
61573;BME280;47465;43.094;12.434;2022-08-07T08:40:46;98440.63;;;30.98;41.71
61573;BME280;47465;43.094;12.434;2022-08-07T08:43:18;98432.78;;;30.87;42.25
61573;BME280;47465;43.094;12.434;2022-08-07T08:45:52;98429.66;;;30.50;42.72
61573;BME280;47465;43.094;12.434;2022-08-07T08:48:26;98435.03;;;30.75;43.09
61573;BME280;47465;43.094;12.434;2022-08-07T08:50:59;98423.56;;;30.71;41.97
61573;BME280;47465;43.094;12.434;2022-08-07T08:53:33;98420.97;;;30.78;42.58
61573;BME280;47465;43.094;12.434;2022-08-07T08:56:06;98416.63;;;30.84;42.34
61573;BME280;47465;43.094;12.434;2022-08-07T08:58:44;98437.38;;;31.26;41.45
61573;BME280;47465;43.094;12.434;2022-08-07T09:01:17;98415.66;;;31.62;40.81
61573;BME280;47465;43.094;12.434;2022-08-07T09:03:58;98412.56;;;31.11;40.73
61573;BME280;47465;43.094;12.434;2022-08-07T09:06:39;98422.19;;;31.38;40.43
61573;BME280;47465;43.094;12.434;2022-08-07T09:09:20;98422.38;;;31.60;39.99
61573;BME280;47465;43.094;12.434;2022-08-07T09:11:54;98400.75;;;31.57;40.07
61573;BME280;47465;43.094;12.434;2022-08-07T09:14:31;98413.78;;;32.01;39.01
61573;BME280;47465;43.094;12.434;2022-08-07T09:17:05;98423.19;;;31.83;39.28
61573;BME280;47465;43.094;12.434;2022-08-07T09:19:45;98415.56;;;31.56;39.82
61573;BME280;47465;43.094;12.434;2022-08-07T09:22:27;98413.59;;;31.79;39.38
61573;BME280;47465;43.094;12.434;2022-08-07T09:25:00;98408.88;;;31.73;39.32
61573;BME280;47465;43.094;12.434;2022-08-07T09:27:33;98420.44;;;32.06;38.68
61573;BME280;47465;43.094;12.434;2022-08-07T09:30:09;98416.78;;;32.59;38.31
61573;BME280;47465;43.094;12.434;2022-08-07T09:32:49;98406.72;;;32.36;38.24
61573;BME280;47465;43.094;12.434;2022-08-07T09:35:27;98417.22;;;32.32;38.36
61573;BME280;47465;43.094;12.434;2022-08-07T09:38:00;98414.06;;;31.68;38.76
61573;BME280;47465;43.094;12.434;2022-08-07T09:40:36;98411.81;;;31.71;39.04
61573;BME280;47465;43.094;12.434;2022-08-07T09:43:13;98404.81;;;31.84;39.03
61573;BME280;47465;43.094;12.434;2022-08-07T09:45:57;98401.19;;;32.36;38.50
61573;BME280;47465;43.094;12.434;2022-08-07T09:48:34;98394.72;;;32.29;38.15
61573;BME280;47465;43.094;12.434;2022-08-07T09:51:12;98389.53;;;32.49;38.24
61573;BME280;47465;43.094;12.434;2022-08-07T09:53:41;98406.13;;;32.41;38.31
61573;BME280;47465;43.094;12.434;2022-08-07T09:56:26;98403.06;;;32.80;37.75
61573;BME280;47465;43.094;12.434;2022-08-07T09:59:19;98401.66;;;32.84;36.84
61573;BME280;47465;43.094;12.434;2022-08-07T10:02:06;98403.75;;;32.67;37.88
61573;BME280;47465;43.094;12.434;2022-08-07T10:04:51;98397.63;;;33.02;37.18
61573;BME280;47465;43.094;12.434;2022-08-07T10:07:56;98401.53;;;33.07;36.44
61573;BME280;47465;43.094;12.434;2022-08-07T10:10:32;98396.34;;;33.19;35.86
61573;BME280;47465;43.094;12.434;2022-08-07T10:13:13;98387.31;;;32.44;37.07
61573;BME280;47465;43.094;12.434;2022-08-07T10:16:00;98398.63;;;32.34;37.22
61573;BME280;47465;43.094;12.434;2022-08-07T10:18:44;98379.84;;;32.38;37.52
61573;BME280;47465;43.094;12.434;2022-08-07T10:21:25;98386.56;;;32.80;37.43
61573;BME280;47465;43.094;12.434;2022-08-07T10:24:12;98386.47;;;32.73;36.97
61573;BME280;47465;43.094;12.434;2022-08-07T10:26:52;98389.13;;;32.82;36.99
61573;BME280;47465;43.094;12.434;2022-08-07T10:29:36;98388.19;;;32.45;36.97
61573;BME280;47465;43.094;12.434;2022-08-07T10:32:17;98362.31;;;32.90;36.87
61573;BME280;47465;43.094;12.434;2022-08-07T10:34:59;98372.22;;;33.43;36.10
61573;BME280;47465;43.094;12.434;2022-08-07T10:37:38;98360.44;;;32.76;36.65
61573;BME280;47465;43.094;12.434;2022-08-07T10:40:13;98360.56;;;33.04;36.77
61573;BME280;47465;43.094;12.434;2022-08-07T10:42:51;98357.25;;;33.09;35.89
61573;BME280;47465;43.094;12.434;2022-08-07T10:45:25;98364.06;;;32.77;36.04
61573;BME280;47465;43.094;12.434;2022-08-07T10:48:02;98359.97;;;32.72;36.47
61573;BME280;47465;43.094;12.434;2022-08-07T10:50:38;98349.97;;;32.86;35.91
61573;BME280;47465;43.094;12.434;2022-08-07T10:53:09;98361.19;;;32.85;36.34
61573;BME280;47465;43.094;12.434;2022-08-07T10:55:44;98356.94;;;33.40;36.25
61573;BME280;47465;43.094;12.434;2022-08-07T10:58:22;98352.66;;;33.59;34.87
61573;BME280;47465;43.094;12.434;2022-08-07T11:00:57;98345.03;;;33.61;34.58
61573;BME280;47465;43.094;12.434;2022-08-07T11:03:28;98322.53;;;33.36;35.38
61573;BME280;47465;43.094;12.434;2022-08-07T11:06:07;98330.44;;;33.46;35.14
61573;BME280;47465;43.094;12.434;2022-08-07T11:08:39;98334.22;;;33.38;35.13
61573;BME280;47465;43.094;12.434;2022-08-07T11:11:11;98342.97;;;33.70;35.08
61573;BME280;47465;43.094;12.434;2022-08-07T11:13:50;98335.00;;;33.32;34.62
61573;BME280;47465;43.094;12.434;2022-08-07T11:16:28;98320.97;;;33.27;34.55
61573;BME280;47465;43.094;12.434;2022-08-07T11:19:02;98315.59;;;33.40;34.81
61573;BME280;47465;43.094;12.434;2022-08-07T11:21:37;98315.63;;;33.47;34.66
61573;BME280;47465;43.094;12.434;2022-08-07T11:24:09;98314.59;;;33.26;34.65
61573;BME280;47465;43.094;12.434;2022-08-07T11:26:42;98299.72;;;33.21;34.62
61573;BME280;47465;43.094;12.434;2022-08-07T11:29:15;98318.78;;;33.22;34.51
61573;BME280;47465;43.094;12.434;2022-08-07T11:31:46;98294.66;;;33.24;34.69
61573;BME280;47465;43.094;12.434;2022-08-07T11:34:19;98297.38;;;33.46;34.16
61573;BME280;47465;43.094;12.434;2022-08-07T11:36:54;98302.50;;;33.49;34.67
61573;BME280;47465;43.094;12.434;2022-08-07T11:39:31;98306.16;;;33.56;33.79
61573;BME280;47465;43.094;12.434;2022-08-07T11:42:12;98306.34;;;33.54;33.94
61573;BME280;47465;43.094;12.434;2022-08-07T11:44:46;98298.72;;;33.56;34.30
61573;BME280;47465;43.094;12.434;2022-08-07T11:47:28;98293.06;;;33.37;34.54
61573;BME280;47465;43.094;12.434;2022-08-07T11:50:20;98297.66;;;33.79;34.24
61573;BME280;47465;43.094;12.434;2022-08-07T11:53:15;98282.16;;;33.78;33.89
61573;BME280;47465;43.094;12.434;2022-08-07T11:55:58;98288.63;;;33.92;33.36
61573;BME280;47465;43.094;12.434;2022-08-07T11:58:37;98277.94;;;33.54;33.78
61573;BME280;47465;43.094;12.434;2022-08-07T12:01:16;98268.47;;;33.35;34.05
61573;BME280;47465;43.094;12.434;2022-08-07T12:03:56;98278.88;;;33.40;33.94
61573;BME280;47465;43.094;12.434;2022-08-07T12:06:45;98281.63;;;33.40;34.16
61573;BME280;47465;43.094;12.434;2022-08-07T12:09:20;98264.34;;;33.81;33.46
61573;BME280;47465;43.094;12.434;2022-08-07T12:11:54;98291.88;;;34.09;33.03
61573;BME280;47465;43.094;12.434;2022-08-07T12:14:25;98281.97;;;33.80;33.33
61573;BME280;47465;43.094;12.434;2022-08-07T12:16:55;98289.94;;;33.68;33.44
61573;BME280;47465;43.094;12.434;2022-08-07T12:19:30;98273.59;;;33.38;33.79
61573;BME280;47465;43.094;12.434;2022-08-07T12:22:03;98278.13;;;33.52;33.54
61573;BME280;47465;43.094;12.434;2022-08-07T12:24:38;98283.19;;;33.70;33.33
61573;BME280;47465;43.094;12.434;2022-08-07T12:27:28;98283.97;;;33.36;34.34
61573;BME280;47465;43.094;12.434;2022-08-07T12:30:01;98263.47;;;33.73;33.53
61573;BME280;47465;43.094;12.434;2022-08-07T12:32:32;98270.97;;;33.86;32.75
61573;BME280;47465;43.094;12.434;2022-08-07T12:35:01;98250.25;;;33.62;33.11
61573;BME280;47465;43.094;12.434;2022-08-07T12:37:27;98263.66;;;33.44;33.47
61573;BME280;47465;43.094;12.434;2022-08-07T12:39:57;98259.25;;;33.21;34.28
61573;BME280;47465;43.094;12.434;2022-08-07T12:42:27;98258.88;;;33.31;33.94
61573;BME280;47465;43.094;12.434;2022-08-07T12:44:57;98284.41;;;33.18;34.12
61573;BME280;47465;43.094;12.434;2022-08-07T12:47:31;98273.81;;;33.15;33.80
61573;BME280;47465;43.094;12.434;2022-08-07T12:50:05;98277.88;;;33.47;33.71
61573;BME280;47465;43.094;12.434;2022-08-07T12:52:40;98282.63;;;32.89;34.07
61573;BME280;47465;43.094;12.434;2022-08-07T12:55:19;98261.56;;;33.03;34.00
61573;BME280;47465;43.094;12.434;2022-08-07T12:57:46;98267.91;;;32.97;34.43
61573;BME280;47465;43.094;12.434;2022-08-07T13:00:13;98265.00;;;33.26;34.20
61573;BME280;47465;43.094;12.434;2022-08-07T13:02:49;98279.31;;;33.15;33.89
61573;BME280;47465;43.094;12.434;2022-08-07T13:05:35;98276.13;;;33.40;33.83
61573;BME280;47465;43.094;12.434;2022-08-07T13:08:35;98272.94;;;32.71;34.98
61573;BME280;47465;43.094;12.434;2022-08-07T13:11:23;98268.28;;;32.21;35.72